To NAV CANADA Home Page Login to a new session Search on AWWS site Feedback and Comments Disclaimer Vers la page française équivalente Tips FAQ What's new on the site To the Forecasts and Observations / NOTAM section To "File a Flight Plan" website Publications and other links Update of the User's profile FIC Telephone Numbers My Weather Data Folder Route Weather Data Regional Weather Data Local Weather Data To the Forecasts and Observations / NOTAM section
Request Generated 08/22/2017 at 03:14:38 UTC . Weather information available at that time is displayed.

METAR/TAF

ST. JOHN'S/ST. JOHN'S INTL/NL    

METAR CYYT 220300Z 26012KT 15SM FEW200 15/14 A2987 RMK CI2 SLP118
DENSITY ALT 700FT=
METAR CYYT 220200Z 26011KT 15SM FEW200 16/14 A2986 RMK CI1 SLP113
DENSITY ALT 800FT=
METAR CYYT 220100Z 26013KT 15SM FEW200 16/14 A2985 RMK CI2 SLP111
DENSITY ALT 800FT=

TAF CYYT 212339Z 2200/2224 26012G22KT P6SM FEW200
FM220600 25007KT 2SM BR BKN004
FM221100 25010KT 6SM BR FEW004
FM221300 15012G22KT P6SM SKC
BECMG 2213/2215 24015G25KT
RMK NXT FCST BY 220600Z=
Your time UTC time
Weather data provided by Environment Canada and NAV CANADA